createdAt,value
2018-12-08T00:01:55.090Z,76.70
2018-12-08T00:09:18.219Z,76.60
2018-12-08T00:11:46.006Z,75.60
2018-12-08T00:14:13.479Z,76.10
2018-12-08T00:16:41.140Z,76.30
2018-12-08T00:19:08.618Z,76.30
2018-12-08T00:24:03.583Z,75.40
2018-12-08T00:36:27.215Z,73.90
2018-12-08T00:38:54.892Z,74.40
2018-12-08T00:41:22.494Z,74.40
2018-12-08T00:43:50.011Z,74.50
2018-12-08T00:46:17.509Z,74.70
2018-12-08T00:48:49.483Z,74.70
2018-12-08T00:51:16.937Z,74.80
2018-12-08T00:53:44.506Z,74.50
2018-12-08T00:56:12.844Z,74.30
2018-12-08T00:58:40.861Z,73.50
2018-12-08T01:01:08.388Z,72.90
2018-12-08T01:03:36.023Z,73.80
2018-12-08T01:06:04.281Z,73.60
2018-12-08T01:08:32.975Z,73.40
2018-12-08T01:11:00.564Z,74.10
2018-12-08T01:13:28.066Z,72.40
2018-12-08T01:15:56.463Z,72.30
2018-12-08T01:18:24.250Z,72.30
2018-12-08T01:20:51.984Z,72.60
2018-12-08T01:23:19.564Z,72.20
2018-12-08T01:25:47.122Z,72.80
2018-12-08T01:28:15.299Z,72.80
2018-12-08T01:30:42.787Z,73.30
2018-12-08T01:33:10.319Z,73.40
2018-12-08T01:35:37.812Z,73.30
2018-12-08T01:38:05.366Z,74.10
2018-12-08T01:40:32.890Z,73.80
2018-12-08T01:43:01.522Z,73.70
2018-12-08T01:45:29.054Z,74.20
2018-12-08T01:47:56.860Z,74.30
2018-12-08T01:50:24.518Z,73.90
2018-12-08T01:52:52.156Z,74.50
2018-12-08T01:55:19.699Z,74.80
2018-12-08T01:57:47.156Z,74.80
2018-12-08T02:00:15.270Z,74.50
2018-12-08T02:05:10.269Z,74.00
2018-12-08T02:07:38.806Z,74.70
2018-12-08T02:10:06.674Z,73.90
2018-12-08T02:12:34.211Z,74.60
2018-12-08T02:15:01.886Z,74.70
2018-12-08T02:17:29.421Z,74.90
2018-12-08T02:19:56.887Z,75.00
2018-12-08T02:22:24.433Z,75.50
2018-12-08T02:27:20.521Z,75.80
2018-12-08T02:29:48.620Z,76.00
2018-12-08T02:32:16.267Z,75.80
2018-12-08T02:37:12.132Z,76.10
2018-12-08T02:39:41.639Z,76.40
2018-12-08T02:42:09.782Z,76.20
2018-12-08T02:44:37.229Z,76.20
2018-12-08T02:47:04.711Z,75.80
2018-12-08T02:49:32.310Z,76.10
2018-12-08T02:54:27.706Z,76.30
2018-12-08T02:59:22.575Z,76.70
2018-12-08T03:04:17.528Z,76.80
2018-12-08T03:06:44.980Z,76.80
2018-12-08T03:09:12.443Z,77.20
2018-12-08T03:11:39.917Z,77.00
2018-12-08T03:14:07.412Z,76.00
2018-12-08T03:19:02.362Z,76.30
2018-12-08T03:21:29.998Z,76.70
2018-12-08T03:23:57.736Z,76.80
2018-12-08T03:26:25.312Z,77.30
2018-12-08T03:28:52.749Z,77.10
2018-12-08T03:31:20.228Z,77.30
2018-12-08T03:33:47.828Z,77.60
2018-12-08T03:36:15.854Z,78.00
2018-12-08T03:38:44.059Z,78.60
2018-12-08T03:41:12.206Z,77.90
2018-12-08T03:43:39.674Z,78.10
2018-12-08T03:46:07.146Z,78.80
2018-12-08T03:48:34.641Z,79.30
2018-12-08T03:53:29.536Z,78.30
2018-12-08T03:55:57.044Z,77.90
2018-12-08T03:58:24.537Z,77.90
2018-12-08T04:03:20.088Z,78.50
2018-12-08T04:05:47.702Z,77.90
2018-12-08T04:08:15.209Z,77.60
2018-12-08T04:10:42.825Z,77.40
2018-12-08T04:13:10.478Z,77.70
2018-12-08T04:15:38.386Z,76.80
2018-12-08T04:18:05.850Z,76.30
2018-12-08T04:20:33.993Z,76.60
2018-12-08T04:23:02.094Z,76.20
2018-12-08T04:25:29.573Z,75.60
2018-12-08T04:27:57.082Z,76.30
2018-12-08T04:30:24.654Z,75.10
2018-12-08T04:32:52.314Z,76.10
2018-12-08T04:35:19.848Z,75.50
2018-12-08T04:37:47.423Z,75.60
2018-12-08T04:40:14.978Z,75.40
2018-12-08T04:42:42.421Z,75.80
2018-12-08T04:45:09.970Z,75.80
2018-12-08T04:50:05.273Z,76.20
2018-12-08T04:52:32.873Z,77.20
2018-12-08T04:55:00.307Z,77.00
2018-12-08T04:57:27.758Z,77.00
2018-12-08T04:59:55.246Z,77.20
2018-12-08T05:02:22.958Z,77.10
2018-12-08T05:04:50.444Z,77.00
2018-12-08T05:07:17.994Z,77.00
2018-12-08T05:09:45.589Z,77.00
2018-12-08T05:12:13.146Z,77.10
2018-12-08T05:14:40.622Z,77.00
2018-12-08T05:17:08.141Z,77.00
2018-12-08T05:19:35.648Z,77.90
2018-12-08T05:22:03.201Z,77.80
2018-12-08T05:24:30.899Z,78.90
2018-12-08T05:26:58.362Z,79.50
2018-12-08T05:29:25.771Z,79.50
2018-12-08T05:34:20.844Z,79.50
2018-12-08T05:36:48.306Z,79.70
2018-12-08T05:39:15.814Z,79.80
2018-12-08T05:41:43.327Z,80.60
2018-12-08T05:44:10.767Z,80.00
2018-12-08T05:46:38.383Z,80.40
2018-12-08T05:49:06.002Z,80.70
2018-12-08T05:51:33.583Z,80.80
2018-12-08T05:54:01.039Z,80.60
2018-12-08T05:58:59.458Z,81.10
2018-12-08T06:03:55.128Z,80.50
2018-12-08T06:06:22.751Z,80.70
2018-12-08T06:11:18.509Z,80.80
2018-12-08T06:13:46.012Z,80.80
2018-12-08T06:16:13.549Z,81.20
2018-12-08T06:18:42.086Z,80.70
2018-12-08T06:23:36.990Z,80.30
2018-12-08T06:26:15.074Z,80.50
2018-12-08T06:28:44.862Z,80.00
2018-12-08T06:31:12.350Z,79.90
2018-12-08T06:33:39.819Z,79.60
2018-12-08T06:36:07.335Z,79.80
2018-12-08T06:38:34.912Z,80.00
2018-12-08T06:41:02.477Z,80.40
2018-12-08T06:45:57.498Z,79.70
2018-12-08T06:48:25.289Z,79.80
2018-12-08T06:50:52.893Z,78.80
2018-12-08T06:53:20.486Z,78.80
2018-12-08T06:55:48.010Z,79.00
2018-12-08T06:58:15.607Z,78.70
2018-12-08T07:00:44.032Z,78.90
2018-12-08T07:03:11.503Z,77.70
2018-12-08T07:05:39.542Z,78.20
2018-12-08T07:08:07.099Z,78.10
2018-12-08T07:13:02.199Z,78.50
2018-12-08T07:15:29.839Z,78.60
2018-12-08T07:17:57.336Z,79.20
2018-12-08T07:20:24.886Z,78.90
2018-12-08T07:22:52.377Z,78.20
2018-12-08T07:25:20.005Z,78.60
2018-12-08T07:27:47.618Z,78.00
2018-12-08T07:30:15.314Z,78.70
2018-12-08T07:32:42.901Z,78.70
2018-12-08T07:35:11.763Z,79.00
2018-12-08T07:40:08.268Z,78.30
2018-12-08T07:42:37.477Z,78.30
2018-12-08T07:45:06.506Z,78.20
2018-12-08T07:47:34.104Z,78.60
2018-12-08T07:50:01.578Z,78.70
2018-12-08T07:52:29.171Z,79.30
2018-12-08T07:54:57.313Z,78.80
2018-12-08T07:57:25.832Z,79.90
2018-12-08T07:59:54.755Z,79.80
2018-12-08T08:02:22.843Z,79.80
2018-12-08T08:04:50.607Z,81.00
2018-12-08T08:07:18.106Z,81.80
2018-12-08T08:09:45.968Z,81.80
2018-12-08T08:12:13.458Z,81.70
2018-12-08T08:14:41.020Z,81.90
2018-12-08T08:17:08.489Z,82.10
2018-12-08T08:19:37.349Z,82.00
2018-12-08T08:22:04.890Z,81.90
2018-12-08T08:24:32.519Z,82.20
2018-12-08T08:27:00.113Z,82.00
2018-12-08T08:29:27.628Z,82.40
2018-12-08T08:31:55.313Z,82.50
2018-12-08T08:34:22.828Z,82.10
2018-12-08T08:36:52.812Z,81.60
2018-12-08T08:39:20.390Z,81.70
2018-12-08T08:41:47.880Z,82.30
2018-12-08T08:44:15.321Z,82.20
2018-12-08T08:46:42.814Z,81.90
2018-12-08T08:49:10.323Z,82.20
2018-12-08T08:51:40.370Z,82.10
2018-12-08T08:54:07.927Z,82.90
2018-12-08T08:56:35.505Z,82.50
2018-12-08T08:59:04.559Z,81.80
2018-12-08T09:01:32.342Z,82.10
2018-12-08T09:04:00.473Z,81.90
2018-12-08T09:06:27.951Z,82.10
2018-12-08T09:08:56.247Z,81.90
2018-12-08T09:11:23.806Z,82.30
2018-12-08T09:13:51.327Z,82.70
2018-12-08T09:16:18.826Z,83.10
2018-12-08T09:18:46.428Z,82.80
2018-12-08T09:26:09.214Z,82.70
2018-12-08T09:28:36.988Z,82.70
2018-12-08T09:31:04.624Z,83.70
2018-12-08T09:33:32.194Z,84.00
2018-12-08T09:36:00.053Z,84.50
2018-12-08T09:38:28.080Z,84.30
2018-12-08T09:40:55.621Z,83.80
2018-12-08T09:43:26.994Z,83.60
2018-12-08T09:45:54.809Z,84.10
2018-12-08T09:48:23.073Z,84.40
2018-12-08T09:53:19.986Z,85.10
2018-12-08T09:55:47.877Z,85.40
2018-12-08T09:58:15.542Z,85.40
2018-12-08T10:00:43.720Z,85.30
2018-12-08T10:03:11.530Z,85.70
2018-12-08T10:05:39.772Z,85.70
2018-12-08T10:08:07.994Z,85.80
2018-12-08T10:10:35.623Z,85.50
2018-12-08T10:13:03.833Z,85.40
2018-12-08T10:15:31.492Z,85.30
2018-12-08T10:17:59.628Z,85.30
2018-12-08T10:20:28.085Z,85.30
2018-12-08T10:22:56.741Z,84.80
2018-12-08T10:25:24.281Z,85.30
2018-12-08T10:27:52.866Z,85.00
2018-12-08T10:30:20.575Z,84.70
2018-12-08T10:32:48.334Z,84.10
2018-12-08T10:35:16.054Z,84.00
2018-12-08T10:37:43.819Z,83.30
2018-12-08T10:42:40.539Z,82.00
2018-12-08T10:45:09.385Z,81.90
2018-12-08T10:47:37.193Z,81.30
2018-12-08T10:50:08.753Z,81.80
2018-12-08T10:52:36.950Z,82.20
2018-12-08T10:55:05.486Z,81.50
2018-12-08T10:57:33.239Z,81.90
2018-12-08T11:00:01.144Z,81.80
2018-12-08T11:02:40.398Z,80.90
2018-12-08T11:05:08.024Z,81.00
2018-12-08T11:07:35.571Z,81.00
2018-12-08T11:10:04.047Z,80.60
2018-12-08T11:12:31.664Z,80.00
2018-12-08T11:15:01.037Z,79.90
2018-12-08T11:17:29.371Z,79.90
2018-12-08T11:19:56.985Z,79.50
2018-12-08T11:22:24.901Z,80.00
2018-12-08T11:24:53.231Z,79.50
2018-12-08T11:27:20.900Z,80.00
2018-12-08T11:32:15.902Z,78.90
2018-12-08T11:34:43.492Z,78.70
2018-12-08T11:39:38.679Z,77.80
2018-12-08T11:42:06.522Z,77.60
2018-12-08T11:44:34.919Z,77.70
2018-12-08T11:47:02.623Z,77.20
2018-12-08T11:49:30.845Z,77.00
2018-12-08T11:54:26.590Z,77.00
2018-12-08T11:56:54.131Z,76.70
2018-12-08T11:59:22.220Z,76.90
2018-12-08T12:01:50.654Z,77.30
2018-12-08T12:04:18.158Z,75.90
2018-12-08T12:06:45.763Z,75.40
2018-12-08T12:09:15.643Z,75.60
2018-12-08T12:11:43.237Z,76.10
2018-12-08T12:14:10.939Z,76.60
2018-12-08T12:16:38.858Z,75.70
2018-12-08T12:19:06.457Z,76.00
2018-12-08T12:21:34.277Z,76.30
2018-12-08T12:24:02.744Z,77.40
2018-12-08T12:29:00.947Z,77.30
2018-12-08T12:31:28.487Z,77.50
2018-12-08T12:33:57.179Z,77.20
2018-12-08T12:36:25.205Z,77.00
2018-12-08T12:38:53.211Z,77.10
2018-12-08T12:41:21.801Z,77.30
2018-12-08T12:46:24.773Z,77.60
2018-12-08T12:48:52.818Z,77.50
2018-12-08T12:51:20.342Z,77.50
2018-12-08T12:53:48.540Z,77.40
2018-12-08T12:56:17.757Z,77.00
2018-12-08T12:58:46.167Z,77.00
2018-12-08T13:01:15.421Z,77.60
2018-12-08T13:03:43.044Z,76.70
2018-12-08T13:06:10.857Z,77.30
2018-12-08T13:08:38.651Z,77.70
2018-12-08T13:11:06.157Z,77.60
2018-12-08T13:13:34.407Z,77.30
2018-12-08T13:16:02.062Z,77.60
2018-12-08T13:18:29.694Z,77.50
2018-12-08T13:20:57.860Z,77.50
2018-12-08T13:23:28.904Z,77.60
2018-12-08T13:26:09.828Z,78.40
2018-12-08T13:28:39.291Z,79.60
2018-12-08T13:31:07.065Z,80.20
2018-12-08T13:36:02.598Z,80.70
2018-12-08T13:38:30.234Z,80.30
2018-12-08T13:53:22.884Z,73.60
2018-12-08T13:55:50.488Z,74.10
2018-12-08T13:58:23.108Z,75.90
2018-12-08T14:03:45.124Z,77.10
2018-12-08T14:06:20.148Z,77.80
2018-12-08T14:08:59.722Z,78.80
2018-12-08T14:11:43.608Z,79.00
2018-12-08T14:14:18.961Z,79.50
2018-12-08T14:24:09.123Z,79.00
2018-12-08T14:26:36.621Z,78.60
2018-12-08T14:29:04.239Z,78.60
2018-12-08T14:34:00.402Z,79.10
2018-12-08T14:41:30.802Z,80.20
2018-12-08T14:44:09.638Z,80.30
2018-12-08T14:46:38.329Z,80.30
2018-12-08T14:49:09.624Z,80.60
2018-12-08T14:51:40.209Z,80.30
2018-12-08T14:54:08.864Z,80.10
2018-12-08T14:56:36.617Z,80.20
2018-12-08T14:59:05.863Z,80.00
2018-12-08T15:01:34.855Z,80.30
2018-12-08T15:04:04.755Z,80.30
2018-12-08T15:06:32.638Z,80.50
2018-12-08T15:09:01.184Z,80.60
2018-12-08T15:11:30.410Z,81.00
2018-12-08T15:16:28.941Z,80.30
2018-12-08T15:21:27.437Z,79.60
2018-12-08T15:26:26.639Z,79.80
2018-12-08T15:28:57.136Z,80.10
2018-12-08T15:31:26.015Z,79.70
2018-12-08T15:37:25.030Z,80.30
2018-12-08T15:40:10.290Z,80.90
2018-12-08T15:45:29.431Z,80.50
2018-12-08T15:48:06.947Z,80.90
2018-12-08T15:53:34.633Z,80.90
2018-12-08T15:56:02.419Z,81.50
2018-12-08T16:00:58.358Z,81.50
2018-12-08T16:03:26.212Z,82.00
2018-12-08T16:05:54.508Z,81.90
2018-12-08T16:08:22.766Z,82.00
2018-12-08T16:10:50.411Z,81.80
2018-12-08T16:13:18.130Z,81.50
2018-12-08T16:15:45.712Z,81.70
2018-12-08T16:18:13.370Z,81.60
2018-12-08T16:20:40.867Z,81.60
2018-12-08T16:23:08.459Z,81.60
2018-12-08T16:30:31.600Z,81.90
2018-12-08T16:33:00.091Z,82.10
2018-12-08T16:35:27.623Z,82.10
2018-12-08T16:37:57.112Z,82.20
2018-12-08T16:40:25.409Z,82.50
2018-12-08T16:42:52.918Z,82.50
2018-12-08T16:45:20.411Z,82.40
2018-12-08T16:47:47.944Z,82.50
2018-12-08T16:50:15.617Z,82.60
2018-12-08T16:52:43.187Z,82.70
2018-12-08T16:55:10.852Z,82.40
2018-12-08T16:59:02.885Z,82.20
2018-12-08T17:01:30.936Z,82.40
2018-12-08T17:06:26.069Z,81.60
2018-12-08T17:08:53.649Z,81.70
2018-12-08T17:11:21.381Z,81.00
2018-12-08T17:13:49.095Z,81.00
2018-12-08T17:16:16.722Z,81.50
2018-12-08T17:18:44.323Z,81.00
2018-12-08T17:21:12.266Z,81.70
2018-12-08T17:23:40.027Z,82.00
2018-12-08T17:26:08.494Z,82.40
2018-12-08T17:28:36.242Z,82.70
2018-12-08T17:31:04.383Z,82.60
2018-12-08T17:33:32.098Z,82.80
2018-12-08T17:35:59.648Z,82.90
2018-12-08T17:38:28.261Z,82.80
2018-12-08T17:43:25.269Z,82.20
2018-12-08T17:48:21.877Z,81.80
2018-12-08T17:50:49.416Z,81.90
2018-12-08T17:53:17.073Z,81.80
2018-12-08T17:55:44.554Z,81.70
2018-12-08T17:58:12.301Z,81.80
2018-12-08T18:00:40.729Z,81.70
2018-12-08T18:03:08.227Z,81.70
2018-12-08T18:05:36.545Z,81.60
2018-12-08T18:08:04.306Z,81.80
2018-12-08T18:10:32.520Z,81.90
2018-12-08T18:13:00.216Z,81.70
2018-12-08T18:15:27.771Z,81.60
2018-12-08T18:17:55.373Z,81.80
2018-12-08T18:20:23.632Z,81.80
2018-12-08T18:22:51.881Z,82.60
2018-12-08T18:25:20.233Z,83.00
2018-12-08T18:27:47.819Z,83.10
2018-12-08T18:30:16.139Z,83.50
2018-12-08T18:32:43.772Z,83.80
2018-12-08T18:35:11.760Z,83.60
2018-12-08T18:37:39.376Z,84.00
2018-12-08T18:40:07.263Z,84.10
2018-12-08T18:42:34.961Z,84.20
2018-12-08T18:45:02.903Z,84.30
2018-12-08T18:47:30.449Z,84.30
2018-12-08T18:49:57.953Z,84.90
2018-12-08T18:52:25.601Z,84.90
2018-12-08T18:54:53.168Z,85.10
2018-12-08T18:57:20.879Z,86.20
2018-12-08T18:59:49.478Z,87.30
2018-12-08T19:02:17.199Z,87.50
2018-12-08T19:04:44.906Z,88.70
2018-12-08T19:07:12.891Z,88.70
2018-12-08T19:09:40.821Z,88.80
2018-12-08T19:12:08.406Z,89.50
2018-12-08T19:14:35.981Z,89.30
2018-12-08T19:17:03.803Z,88.70
2018-12-08T19:19:31.447Z,88.80
2018-12-08T19:21:59.564Z,88.80
2018-12-08T19:24:27.292Z,88.80
2018-12-08T19:26:54.735Z,88.80
2018-12-08T19:29:22.354Z,88.80
2018-12-08T19:31:49.987Z,88.80
2018-12-08T19:34:17.686Z,88.80
2018-12-08T19:36:45.257Z,89.30
2018-12-08T19:39:13.420Z,88.80
2018-12-08T19:41:40.948Z,88.80
2018-12-08T19:44:08.487Z,88.80
2018-12-08T19:46:36.271Z,89.40
2018-12-08T19:49:03.934Z,90.10
2018-12-08T19:51:31.736Z,90.20
2018-12-08T19:53:59.391Z,90.50
2018-12-08T19:56:27.681Z,90.60
2018-12-08T19:58:56.036Z,90.50
2018-12-08T20:01:23.899Z,90.60
2018-12-08T20:03:51.649Z,90.60
2018-12-08T20:06:19.186Z,90.50
2018-12-08T20:08:46.751Z,90.50
2018-12-08T20:13:42.276Z,90.60
2018-12-08T20:16:10.065Z,90.60
2018-12-08T20:18:37.821Z,90.50
2018-12-08T20:21:05.563Z,90.80
2018-12-08T20:23:33.883Z,90.90
2018-12-08T20:26:02.087Z,90.80
2018-12-08T20:28:29.722Z,90.90
2018-12-08T20:30:57.515Z,90.90
2018-12-08T20:33:25.351Z,90.80
2018-12-08T20:35:52.974Z,91.10
2018-12-08T20:38:20.710Z,91.00
2018-12-08T20:40:48.404Z,90.90
2018-12-08T20:43:16.884Z,91.10
2018-12-08T20:45:45.158Z,90.90
2018-12-08T20:48:13.499Z,91.00
2018-12-08T20:50:41.137Z,90.90
2018-12-08T20:53:08.710Z,90.80
2018-12-08T20:55:36.310Z,90.90
2018-12-08T20:58:04.014Z,90.90
2018-12-08T21:00:31.639Z,90.80
2018-12-08T21:03:00.563Z,90.80
2018-12-08T21:05:28.634Z,90.90
2018-12-08T21:07:56.446Z,90.90
2018-12-08T21:10:24.163Z,90.80
2018-12-08T21:12:52.302Z,90.70
2018-12-08T21:15:20.180Z,90.70
2018-12-08T21:17:48.542Z,90.60
2018-12-08T21:20:16.240Z,90.60
2018-12-08T21:22:44.342Z,90.60
2018-12-08T21:25:12.060Z,90.60
2018-12-08T21:27:39.582Z,90.60
2018-12-08T21:30:07.579Z,90.90
2018-12-08T21:32:35.249Z,91.30
2018-12-08T21:35:02.948Z,91.40
2018-12-08T21:37:30.481Z,91.60
2018-12-08T21:39:58.153Z,91.60
2018-12-08T21:42:25.802Z,91.80
2018-12-08T21:44:53.476Z,91.90
2018-12-08T21:47:21.821Z,92.00
2018-12-08T21:49:49.370Z,92.20
2018-12-08T21:52:17.041Z,92.30
2018-12-08T21:54:44.629Z,92.30
2018-12-08T21:57:12.318Z,92.50
2018-12-08T21:59:40.153Z,92.80
2018-12-08T22:02:08.432Z,92.80
2018-12-08T22:04:36.522Z,92.90
2018-12-08T22:07:04.190Z,93.00
2018-12-08T22:12:00.340Z,92.80
2018-12-08T22:14:28.071Z,93.00
2018-12-08T22:16:55.847Z,93.00
2018-12-08T22:19:23.985Z,93.00
2018-12-08T22:21:51.682Z,93.10
2018-12-08T22:24:19.201Z,93.10
2018-12-08T22:26:46.846Z,93.10
2018-12-08T22:29:14.480Z,93.00
2018-12-08T22:34:09.530Z,93.10
2018-12-08T22:36:37.209Z,93.10
2018-12-08T22:39:06.671Z,93.10
2018-12-08T22:41:34.235Z,93.00
2018-12-08T22:44:01.767Z,93.10
2018-12-08T22:46:29.656Z,93.10
2018-12-08T22:48:57.158Z,92.90
2018-12-08T22:51:24.774Z,92.60
2018-12-08T22:53:53.949Z,92.60
2018-12-08T22:56:21.525Z,92.50
2018-12-08T22:58:49.102Z,92.50
2018-12-08T23:01:16.821Z,92.50
2018-12-08T23:03:44.503Z,92.80
2018-12-08T23:06:12.755Z,92.70
2018-12-08T23:08:40.743Z,92.70
2018-12-08T23:11:08.306Z,92.70
2018-12-08T23:13:35.949Z,93.10
2018-12-08T23:18:31.375Z,93.10
2018-12-08T23:23:27.068Z,92.90
2018-12-08T23:25:54.683Z,92.90
2018-12-08T23:30:50.266Z,92.70
2018-12-08T23:35:46.118Z,90.00
2018-12-08T23:38:13.690Z,88.20
2018-12-08T23:40:43.281Z,87.10
2018-12-08T23:43:10.875Z,86.70
2018-12-08T23:50:33.252Z,81.90
2018-12-08T23:53:02.440Z,82.20
2018-12-08T23:55:30.026Z,81.60
2018-12-08T23:57:58.582Z,80.80
